sensor_id;sensor_type;location;lat;lon;timestamp;temperature;humidity
1075;DHT22;526;51.392;12.448;2022-07-04T00:00:11;22.40;85.80
1075;DHT22;526;51.392;12.448;2022-07-04T00:02:38;22.30;86.10
1075;DHT22;526;51.392;12.448;2022-07-04T00:05:05;22.30;86.40
1075;DHT22;526;51.392;12.448;2022-07-04T00:07:39;22.20;86.30
1075;DHT22;526;51.392;12.448;2022-07-04T00:10:05;22.20;86.60
1075;DHT22;526;51.392;12.448;2022-07-04T00:12:31;22.20;86.70
1075;DHT22;526;51.392;12.448;2022-07-04T00:14:57;22.20;86.80
1075;DHT22;526;51.392;12.448;2022-07-04T00:17:22;22.10;87.00
1075;DHT22;526;51.392;12.448;2022-07-04T00:19:48;22.10;87.10
1075;DHT22;526;51.392;12.448;2022-07-04T00:22:13;22.00;87.30
1075;DHT22;526;51.392;12.448;2022-07-04T00:24:39;22.00;87.60
1075;DHT22;526;51.392;12.448;2022-07-04T00:27:05;21.90;87.80
1075;DHT22;526;51.392;12.448;2022-07-04T00:29:30;21.80;87.90
1075;DHT22;526;51.392;12.448;2022-07-04T00:31:56;21.80;88.20
1075;DHT22;526;51.392;12.448;2022-07-04T00:34:22;21.80;88.20
1075;DHT22;526;51.392;12.448;2022-07-04T00:36:47;21.70;88.30
1075;DHT22;526;51.392;12.448;2022-07-04T00:39:13;21.60;88.70
1075;DHT22;526;51.392;12.448;2022-07-04T00:41:38;21.60;89.00
1075;DHT22;526;51.392;12.448;2022-07-04T00:44:06;21.50;89.40
1075;DHT22;526;51.392;12.448;2022-07-04T00:46:32;21.30;90.00
1075;DHT22;526;51.392;12.448;2022-07-04T00:48:58;21.30;90.60
1075;DHT22;526;51.392;12.448;2022-07-04T00:51:24;21.10;91.20
1075;DHT22;526;51.392;12.448;2022-07-04T00:53:51;21.00;91.60
1075;DHT22;526;51.392;12.448;2022-07-04T00:56:17;21.00;91.80
1075;DHT22;526;51.392;12.448;2022-07-04T00:58:43;20.90;92.30
1075;DHT22;526;51.392;12.448;2022-07-04T01:01:09;20.80;92.70
1075;DHT22;526;51.392;12.448;2022-07-04T01:03:34;20.70;93.40
1075;DHT22;526;51.392;12.448;2022-07-04T01:06:00;20.70;93.70
1075;DHT22;526;51.392;12.448;2022-07-04T01:08:26;20.60;94.10
1075;DHT22;526;51.392;12.448;2022-07-04T01:10:52;20.50;94.50
1075;DHT22;526;51.392;12.448;2022-07-04T01:13:24;20.40;95.00
1075;DHT22;526;51.392;12.448;2022-07-04T01:15:50;20.30;95.20
1075;DHT22;526;51.392;12.448;2022-07-04T01:18:17;20.20;95.80
1075;DHT22;526;51.392;12.448;2022-07-04T01:20:43;20.20;96.00
1075;DHT22;526;51.392;12.448;2022-07-04T01:23:09;20.10;96.20
1075;DHT22;526;51.392;12.448;2022-07-04T01:25:35;20.00;96.50
1075;DHT22;526;51.392;12.448;2022-07-04T01:28:01;20.00;96.70
1075;DHT22;526;51.392;12.448;2022-07-04T01:30:28;19.90;96.80
1075;DHT22;526;51.392;12.448;2022-07-04T01:32:54;19.90;97.10
1075;DHT22;526;51.392;12.448;2022-07-04T01:35:20;19.80;97.30
1075;DHT22;526;51.392;12.448;2022-07-04T01:37:45;19.70;97.30
1075;DHT22;526;51.392;12.448;2022-07-04T01:40:12;19.60;97.30
1075;DHT22;526;51.392;12.448;2022-07-04T01:42:41;19.60;97.30
1075;DHT22;526;51.392;12.448;2022-07-04T01:45:08;19.60;97.30
1075;DHT22;526;51.392;12.448;2022-07-04T01:47:34;19.60;97.30
1075;DHT22;526;51.392;12.448;2022-07-04T01:50:00;19.50;97.30
1075;DHT22;526;51.392;12.448;2022-07-04T01:52:26;19.50;97.30
1075;DHT22;526;51.392;12.448;2022-07-04T01:54:51;19.50;97.30
1075;DHT22;526;51.392;12.448;2022-07-04T01:57:17;19.40;97.30
1075;DHT22;526;51.392;12.448;2022-07-04T01:59:43;19.40;97.30
1075;DHT22;526;51.392;12.448;2022-07-04T02:02:27;19.40;97.30
1075;DHT22;526;51.392;12.448;2022-07-04T02:04:53;19.40;97.30
1075;DHT22;526;51.392;12.448;2022-07-04T02:07:19;19.30;97.30
1075;DHT22;526;51.392;12.448;2022-07-04T02:09:44;19.30;97.30
1075;DHT22;526;51.392;12.448;2022-07-04T02:12:10;19.30;97.30
1075;DHT22;526;51.392;12.448;2022-07-04T02:14:54;19.30;97.30
1075;DHT22;526;51.392;12.448;2022-07-04T02:17:20;19.30;97.30
1075;DHT22;526;51.392;12.448;2022-07-04T02:19:47;19.30;97.30
1075;DHT22;526;51.392;12.448;2022-07-04T02:22:16;19.30;97.30
1075;DHT22;526;51.392;12.448;2022-07-04T02:24:42;19.30;97.30
1075;DHT22;526;51.392;12.448;2022-07-04T02:27:08;19.20;97.30
1075;DHT22;526;51.392;12.448;2022-07-04T02:29:34;19.20;97.30
1075;DHT22;526;51.392;12.448;2022-07-04T02:32:00;19.20;97.30
1075;DHT22;526;51.392;12.448;2022-07-04T02:34:26;19.10;97.30
1075;DHT22;526;51.392;12.448;2022-07-04T02:36:52;19.10;97.30
1075;DHT22;526;51.392;12.448;2022-07-04T02:39:18;19.10;97.30
1075;DHT22;526;51.392;12.448;2022-07-04T02:41:44;19.00;97.30
1075;DHT22;526;51.392;12.448;2022-07-04T02:44:10;19.00;97.30
1075;DHT22;526;51.392;12.448;2022-07-04T02:46:36;19.00;97.30
1075;DHT22;526;51.392;12.448;2022-07-04T02:49:03;19.00;97.30
1075;DHT22;526;51.392;12.448;2022-07-04T02:51:29;19.00;97.30
1075;DHT22;526;51.392;12.448;2022-07-04T02:53:54;18.90;97.30
1075;DHT22;526;51.392;12.448;2022-07-04T02:56:20;18.90;97.30
1075;DHT22;526;51.392;12.448;2022-07-04T02:58:47;18.90;97.30
1075;DHT22;526;51.392;12.448;2022-07-04T03:01:13;18.80;97.30
1075;DHT22;526;51.392;12.448;2022-07-04T03:03:39;18.80;97.30
1075;DHT22;526;51.392;12.448;2022-07-04T03:06:08;18.70;97.30
1075;DHT22;526;51.392;12.448;2022-07-04T03:08:34;18.70;97.30
1075;DHT22;526;51.392;12.448;2022-07-04T03:11:00;18.70;97.30
1075;DHT22;526;51.392;12.448;2022-07-04T03:13:26;18.60;97.30
1075;DHT22;526;51.392;12.448;2022-07-04T03:15:52;18.60;97.30
1075;DHT22;526;51.392;12.448;2022-07-04T03:18:18;18.60;97.30
1075;DHT22;526;51.392;12.448;2022-07-04T03:20:44;18.60;97.30
1075;DHT22;526;51.392;12.448;2022-07-04T03:23:10;18.60;97.30
1075;DHT22;526;51.392;12.448;2022-07-04T03:25:35;18.60;97.30
1075;DHT22;526;51.392;12.448;2022-07-04T03:28:01;18.60;97.30
1075;DHT22;526;51.392;12.448;2022-07-04T03:30:27;18.60;97.30
1075;DHT22;526;51.392;12.448;2022-07-04T03:32:53;18.60;97.30
1075;DHT22;526;51.392;12.448;2022-07-04T03:35:19;18.60;97.30
1075;DHT22;526;51.392;12.448;2022-07-04T03:37:44;18.50;97.30
1075;DHT22;526;51.392;12.448;2022-07-04T03:40:10;18.50;97.30
1075;DHT22;526;51.392;12.448;2022-07-04T03:42:36;18.40;97.30
1075;DHT22;526;51.392;12.448;2022-07-04T03:45:02;18.40;97.30
1075;DHT22;526;51.392;12.448;2022-07-04T03:47:28;18.40;97.30
1075;DHT22;526;51.392;12.448;2022-07-04T03:49:53;18.40;97.30
1075;DHT22;526;51.392;12.448;2022-07-04T03:52:19;18.40;97.30
1075;DHT22;526;51.392;12.448;2022-07-04T03:54:57;18.40;97.30
1075;DHT22;526;51.392;12.448;2022-07-04T03:57:23;18.40;97.30
1075;DHT22;526;51.392;12.448;2022-07-04T03:59:49;18.40;97.30
1075;DHT22;526;51.392;12.448;2022-07-04T04:02:15;18.40;97.30
1075;DHT22;526;51.392;12.448;2022-07-04T04:04:43;18.40;97.30
1075;DHT22;526;51.392;12.448;2022-07-04T04:07:28;18.40;97.30
1075;DHT22;526;51.392;12.448;2022-07-04T04:09:59;18.50;97.30
1075;DHT22;526;51.392;12.448;2022-07-04T04:12:25;18.50;97.30
1075;DHT22;526;51.392;12.448;2022-07-04T04:14:51;18.40;97.30
1075;DHT22;526;51.392;12.448;2022-07-04T04:17:17;18.40;97.30
1075;DHT22;526;51.392;12.448;2022-07-04T04:19:43;18.40;97.30
1075;DHT22;526;51.392;12.448;2022-07-04T04:22:09;18.40;97.30
1075;DHT22;526;51.392;12.448;2022-07-04T04:24:35;18.30;97.30
1075;DHT22;526;51.392;12.448;2022-07-04T04:27:00;18.30;97.30
1075;DHT22;526;51.392;12.448;2022-07-04T04:29:26;18.30;97.30
1075;DHT22;526;51.392;12.448;2022-07-04T04:31:53;18.30;97.30
1075;DHT22;526;51.392;12.448;2022-07-04T04:34:19;18.30;97.30
1075;DHT22;526;51.392;12.448;2022-07-04T04:36:45;18.30;97.30
1075;DHT22;526;51.392;12.448;2022-07-04T04:39:10;18.40;97.30
1075;DHT22;526;51.392;12.448;2022-07-04T04:41:36;18.40;97.30
1075;DHT22;526;51.392;12.448;2022-07-04T04:44:01;18.40;97.30
1075;DHT22;526;51.392;12.448;2022-07-04T04:46:27;18.40;97.30
1075;DHT22;526;51.392;12.448;2022-07-04T04:48:53;18.40;97.30
1075;DHT22;526;51.392;12.448;2022-07-04T04:51:18;18.50;97.30
1075;DHT22;526;51.392;12.448;2022-07-04T04:53:44;18.50;97.30
1075;DHT22;526;51.392;12.448;2022-07-04T04:56:09;18.50;97.30
1075;DHT22;526;51.392;12.448;2022-07-04T04:58:35;18.50;97.30
1075;DHT22;526;51.392;12.448;2022-07-04T05:01:00;18.50;97.30
1075;DHT22;526;51.392;12.448;2022-07-04T05:03:28;18.50;97.30
1075;DHT22;526;51.392;12.448;2022-07-04T05:05:53;18.50;97.30
1075;DHT22;526;51.392;12.448;2022-07-04T05:08:19;18.50;97.30
1075;DHT22;526;51.392;12.448;2022-07-04T05:10:44;18.60;97.30
1075;DHT22;526;51.392;12.448;2022-07-04T05:13:10;18.60;97.30
1075;DHT22;526;51.392;12.448;2022-07-04T05:15:35;18.60;97.30
1075;DHT22;526;51.392;12.448;2022-07-04T05:18:01;18.60;97.30
1075;DHT22;526;51.392;12.448;2022-07-04T05:20:26;18.60;97.30
1075;DHT22;526;51.392;12.448;2022-07-04T05:22:52;18.60;97.30
1075;DHT22;526;51.392;12.448;2022-07-04T05:25:18;18.70;97.30
1075;DHT22;526;51.392;12.448;2022-07-04T05:27:43;18.70;97.30
1075;DHT22;526;51.392;12.448;2022-07-04T05:30:09;18.70;97.30
1075;DHT22;526;51.392;12.448;2022-07-04T05:32:41;18.70;97.30
1075;DHT22;526;51.392;12.448;2022-07-04T05:35:07;18.70;97.30
1075;DHT22;526;51.392;12.448;2022-07-04T05:37:33;18.70;97.30
1075;DHT22;526;51.392;12.448;2022-07-04T05:39:59;18.80;97.30
1075;DHT22;526;51.392;12.448;2022-07-04T05:42:25;18.80;97.30
1075;DHT22;526;51.392;12.448;2022-07-04T05:44:51;18.90;97.30
1075;DHT22;526;51.392;12.448;2022-07-04T05:47:18;18.90;97.30
1075;DHT22;526;51.392;12.448;2022-07-04T05:49:44;18.90;97.30
1075;DHT22;526;51.392;12.448;2022-07-04T05:52:09;19.00;97.30
1075;DHT22;526;51.392;12.448;2022-07-04T05:54:35;19.00;97.30
1075;DHT22;526;51.392;12.448;2022-07-04T05:57:00;19.00;97.30
1075;DHT22;526;51.392;12.448;2022-07-04T05:59:26;19.10;97.30
1075;DHT22;526;51.392;12.448;2022-07-04T06:01:52;19.10;97.30
1075;DHT22;526;51.392;12.448;2022-07-04T06:04:17;19.10;97.30
1075;DHT22;526;51.392;12.448;2022-07-04T06:06:43;19.20;97.20
1075;DHT22;526;51.392;12.448;2022-07-04T06:09:08;19.20;97.30
1075;DHT22;526;51.392;12.448;2022-07-04T06:11:34;19.30;96.90
1075;DHT22;526;51.392;12.448;2022-07-04T06:14:00;19.30;96.50
1075;DHT22;526;51.392;12.448;2022-07-04T06:16:26;19.30;96.80
1075;DHT22;526;51.392;12.448;2022-07-04T06:18:51;19.30;96.50
1075;DHT22;526;51.392;12.448;2022-07-04T06:21:17;19.30;96.30
1075;DHT22;526;51.392;12.448;2022-07-04T06:23:42;19.40;96.20
1075;DHT22;526;51.392;12.448;2022-07-04T06:26:08;19.40;95.90
1075;DHT22;526;51.392;12.448;2022-07-04T06:28:34;19.40;96.00
1075;DHT22;526;51.392;12.448;2022-07-04T06:31:00;19.40;95.90
1075;DHT22;526;51.392;12.448;2022-07-04T06:33:29;19.40;95.40
1075;DHT22;526;51.392;12.448;2022-07-04T06:35:58;19.50;95.20
1075;DHT22;526;51.392;12.448;2022-07-04T06:38:28;19.50;95.20
1075;DHT22;526;51.392;12.448;2022-07-04T06:40:57;19.50;94.80
1075;DHT22;526;51.392;12.448;2022-07-04T06:43:24;19.60;94.80
1075;DHT22;526;51.392;12.448;2022-07-04T06:45:50;19.60;94.80
1075;DHT22;526;51.392;12.448;2022-07-04T06:48:16;19.60;94.80
1075;DHT22;526;51.392;12.448;2022-07-04T06:50:42;19.70;94.90
1075;DHT22;526;51.392;12.448;2022-07-04T06:53:09;19.70;94.40
1075;DHT22;526;51.392;12.448;2022-07-04T06:55:40;19.70;94.40
1075;DHT22;526;51.392;12.448;2022-07-04T06:58:09;19.70;93.90
1075;DHT22;526;51.392;12.448;2022-07-04T07:00:39;19.70;93.60
1075;DHT22;526;51.392;12.448;2022-07-04T07:03:10;19.80;93.60
1075;DHT22;526;51.392;12.448;2022-07-04T07:05:42;19.80;92.90
1075;DHT22;526;51.392;12.448;2022-07-04T07:08:09;19.80;92.70
1075;DHT22;526;51.392;12.448;2022-07-04T07:10:39;19.90;91.90
1075;DHT22;526;51.392;12.448;2022-07-04T07:13:05;19.90;92.20
1075;DHT22;526;51.392;12.448;2022-07-04T07:15:30;20.00;91.80
1075;DHT22;526;51.392;12.448;2022-07-04T07:18:01;20.10;91.50
1075;DHT22;526;51.392;12.448;2022-07-04T07:20:33;20.10;91.40
1075;DHT22;526;51.392;12.448;2022-07-04T07:23:03;20.20;90.60
1075;DHT22;526;51.392;12.448;2022-07-04T07:25:29;20.20;89.70
1075;DHT22;526;51.392;12.448;2022-07-04T07:27:55;20.20;89.20
1075;DHT22;526;51.392;12.448;2022-07-04T07:30:20;20.20;89.70
1075;DHT22;526;51.392;12.448;2022-07-04T07:32:46;20.30;89.70
1075;DHT22;526;51.392;12.448;2022-07-04T07:35:12;20.40;89.30
1075;DHT22;526;51.392;12.448;2022-07-04T07:37:37;20.50;88.90
1075;DHT22;526;51.392;12.448;2022-07-04T07:40:03;20.50;88.80
1075;DHT22;526;51.392;12.448;2022-07-04T07:42:29;20.60;88.40
1075;DHT22;526;51.392;12.448;2022-07-04T07:44:55;20.70;88.90
1075;DHT22;526;51.392;12.448;2022-07-04T07:47:21;20.70;89.50
1075;DHT22;526;51.392;12.448;2022-07-04T07:49:47;20.80;88.80
1075;DHT22;526;51.392;12.448;2022-07-04T07:52:14;20.80;89.00
1075;DHT22;526;51.392;12.448;2022-07-04T07:54:40;20.90;89.00
1075;DHT22;526;51.392;12.448;2022-07-04T07:57:06;21.00;89.10
1075;DHT22;526;51.392;12.448;2022-07-04T07:59:31;21.00;89.00
1075;DHT22;526;51.392;12.448;2022-07-04T08:01:57;21.10;88.60
1075;DHT22;526;51.392;12.448;2022-07-04T08:04:23;21.20;88.40
1075;DHT22;526;51.392;12.448;2022-07-04T08:07:03;21.20;87.40
1075;DHT22;526;51.392;12.448;2022-07-04T08:09:29;21.30;87.10
1075;DHT22;526;51.392;12.448;2022-07-04T08:11:54;21.30;87.00
1075;DHT22;526;51.392;12.448;2022-07-04T08:14:20;21.30;87.00
1075;DHT22;526;51.392;12.448;2022-07-04T08:16:46;21.40;87.10
1075;DHT22;526;51.392;12.448;2022-07-04T08:19:11;21.40;86.40
1075;DHT22;526;51.392;12.448;2022-07-04T08:21:37;21.40;86.90
1075;DHT22;526;51.392;12.448;2022-07-04T08:24:03;21.40;86.80
1075;DHT22;526;51.392;12.448;2022-07-04T08:26:29;21.50;86.70
1075;DHT22;526;51.392;12.448;2022-07-04T08:28:54;21.50;87.00
1075;DHT22;526;51.392;12.448;2022-07-04T08:31:23;21.60;86.70
1075;DHT22;526;51.392;12.448;2022-07-04T08:33:50;21.60;86.10
1075;DHT22;526;51.392;12.448;2022-07-04T08:36:16;21.70;86.10
1075;DHT22;526;51.392;12.448;2022-07-04T08:38:45;21.70;86.00
1075;DHT22;526;51.392;12.448;2022-07-04T08:41:11;21.80;85.10
1075;DHT22;526;51.392;12.448;2022-07-04T08:43:38;21.80;85.40
1075;DHT22;526;51.392;12.448;2022-07-04T08:46:05;21.80;84.50
1075;DHT22;526;51.392;12.448;2022-07-04T08:48:32;21.80;84.60
1075;DHT22;526;51.392;12.448;2022-07-04T08:51:12;21.80;84.70
1075;DHT22;526;51.392;12.448;2022-07-04T08:53:38;21.70;84.20
1075;DHT22;526;51.392;12.448;2022-07-04T08:56:08;21.70;85.10
1075;DHT22;526;51.392;12.448;2022-07-04T08:58:53;21.70;84.60
1075;DHT22;526;51.392;12.448;2022-07-04T09:01:20;21.70;84.40
1075;DHT22;526;51.392;12.448;2022-07-04T09:03:46;21.80;85.40
1075;DHT22;526;51.392;12.448;2022-07-04T09:06:12;21.80;84.00
1075;DHT22;526;51.392;12.448;2022-07-04T09:08:39;21.90;84.10
1075;DHT22;526;51.392;12.448;2022-07-04T09:11:05;22.00;84.40
1075;DHT22;526;51.392;12.448;2022-07-04T09:13:32;22.00;83.70
1075;DHT22;526;51.392;12.448;2022-07-04T09:15:58;22.00;84.20
1075;DHT22;526;51.392;12.448;2022-07-04T09:18:35;22.10;83.50
1075;DHT22;526;51.392;12.448;2022-07-04T09:21:03;22.10;83.40
1075;DHT22;526;51.392;12.448;2022-07-04T09:23:33;22.10;83.20
1075;DHT22;526;51.392;12.448;2022-07-04T09:26:18;22.10;83.60
1075;DHT22;526;51.392;12.448;2022-07-04T09:28:44;22.10;83.60
1075;DHT22;526;51.392;12.448;2022-07-04T09:31:24;22.10;83.40
1075;DHT22;526;51.392;12.448;2022-07-04T09:33:52;22.10;83.40
1075;DHT22;526;51.392;12.448;2022-07-04T09:36:42;22.10;83.80
1075;DHT22;526;51.392;12.448;2022-07-04T09:39:21;22.10;83.50
1075;DHT22;526;51.392;12.448;2022-07-04T09:42:03;22.00;82.20
1075;DHT22;526;51.392;12.448;2022-07-04T09:44:42;22.00;82.80
1075;DHT22;526;51.392;12.448;2022-07-04T09:47:25;22.00;82.90
1075;DHT22;526;51.392;12.448;2022-07-04T09:50:02;22.00;83.60
1075;DHT22;526;51.392;12.448;2022-07-04T09:52:29;22.10;83.20
1075;DHT22;526;51.392;12.448;2022-07-04T09:55:02;22.00;81.00
1075;DHT22;526;51.392;12.448;2022-07-04T09:57:31;22.00;81.80
1075;DHT22;526;51.392;12.448;2022-07-04T10:00:25;22.00;81.90
1075;DHT22;526;51.392;12.448;2022-07-04T10:02:53;22.00;82.00
1075;DHT22;526;51.392;12.448;2022-07-04T10:05:25;22.10;82.20
1075;DHT22;526;51.392;12.448;2022-07-04T10:07:53;22.20;81.70
1075;DHT22;526;51.392;12.448;2022-07-04T10:10:25;22.30;81.10
1075;DHT22;526;51.392;12.448;2022-07-04T10:12:53;22.30;81.10
1075;DHT22;526;51.392;12.448;2022-07-04T10:15:19;22.40;81.60
1075;DHT22;526;51.392;12.448;2022-07-04T10:17:45;22.50;81.20
1075;DHT22;526;51.392;12.448;2022-07-04T10:20:12;22.60;81.30
1075;DHT22;526;51.392;12.448;2022-07-04T10:22:38;22.70;81.20
1075;DHT22;526;51.392;12.448;2022-07-04T10:25:05;22.80;81.20
1075;DHT22;526;51.392;12.448;2022-07-04T10:27:31;22.90;80.40
1075;DHT22;526;51.392;12.448;2022-07-04T10:30:02;23.00;80.00
1075;DHT22;526;51.392;12.448;2022-07-04T10:32:29;23.10;80.30
1075;DHT22;526;51.392;12.448;2022-07-04T10:34:55;23.20;80.80
1075;DHT22;526;51.392;12.448;2022-07-04T10:37:21;23.20;80.60
1075;DHT22;526;51.392;12.448;2022-07-04T10:39:47;23.20;81.30
1075;DHT22;526;51.392;12.448;2022-07-04T10:42:26;23.20;81.60
1075;DHT22;526;51.392;12.448;2022-07-04T10:45:00;23.20;81.60
1075;DHT22;526;51.392;12.448;2022-07-04T10:47:26;23.10;81.60
1075;DHT22;526;51.392;12.448;2022-07-04T10:49:56;23.10;81.20
1075;DHT22;526;51.392;12.448;2022-07-04T10:52:22;23.20;81.40
1075;DHT22;526;51.392;12.448;2022-07-04T10:54:48;23.30;80.60
1075;DHT22;526;51.392;12.448;2022-07-04T10:57:21;23.40;81.10
1075;DHT22;526;51.392;12.448;2022-07-04T11:02:26;23.70;79.30
1075;DHT22;526;51.392;12.448;2022-07-04T11:04:59;23.70;79.60
1075;DHT22;526;51.392;12.448;2022-07-04T11:18:11;24.10;79.20
1075;DHT22;526;51.392;12.448;2022-07-04T11:20:42;24.20;79.10
1075;DHT22;526;51.392;12.448;2022-07-04T11:23:13;24.30;80.20
1075;DHT22;526;51.392;12.448;2022-07-04T11:25:41;24.40;80.40
1075;DHT22;526;51.392;12.448;2022-07-04T11:28:27;24.60;79.10
1075;DHT22;526;51.392;12.448;2022-07-04T11:30:56;24.70;79.40
1075;DHT22;526;51.392;12.448;2022-07-04T11:33:24;24.90;78.90
1075;DHT22;526;51.392;12.448;2022-07-04T11:36:12;25.00;79.30
1075;DHT22;526;51.392;12.448;2022-07-04T11:38:51;25.00;78.30
1075;DHT22;526;51.392;12.448;2022-07-04T11:41:20;25.00;78.00
1075;DHT22;526;51.392;12.448;2022-07-04T11:44:06;24.90;77.30
1075;DHT22;526;51.392;12.448;2022-07-04T11:47:00;24.80;78.50
1075;DHT22;526;51.392;12.448;2022-07-04T11:49:26;24.70;78.70
1075;DHT22;526;51.392;12.448;2022-07-04T11:51:51;24.60;79.30
1075;DHT22;526;51.392;12.448;2022-07-04T11:54:18;24.70;80.70
1075;DHT22;526;51.392;12.448;2022-07-04T11:56:44;24.80;79.10
1075;DHT22;526;51.392;12.448;2022-07-04T11:59:12;25.00;79.90
1075;DHT22;526;51.392;12.448;2022-07-04T12:01:39;25.20;78.40
1075;DHT22;526;51.392;12.448;2022-07-04T12:04:18;25.40;78.40
1075;DHT22;526;51.392;12.448;2022-07-04T12:06:48;25.50;78.80
1075;DHT22;526;51.392;12.448;2022-07-04T12:09:15;25.70;78.20
1075;DHT22;526;51.392;12.448;2022-07-04T12:11:57;25.80;78.20
1075;DHT22;526;51.392;12.448;2022-07-04T12:14:27;25.90;77.90
1075;DHT22;526;51.392;12.448;2022-07-04T12:17:16;26.00;77.00
1075;DHT22;526;51.392;12.448;2022-07-04T12:19:55;26.10;76.30
1075;DHT22;526;51.392;12.448;2022-07-04T12:24:58;26.30;76.40
1075;DHT22;526;51.392;12.448;2022-07-04T12:27:25;26.40;76.10
1075;DHT22;526;51.392;12.448;2022-07-04T12:29:53;26.40;76.20
1075;DHT22;526;51.392;12.448;2022-07-04T12:32:19;26.50;77.20
1075;DHT22;526;51.392;12.448;2022-07-04T12:34:45;26.60;76.90
1075;DHT22;526;51.392;12.448;2022-07-04T12:37:13;26.70;76.00
1075;DHT22;526;51.392;12.448;2022-07-04T12:39:41;26.90;75.50
1075;DHT22;526;51.392;12.448;2022-07-04T12:44:34;27.00;73.80
1075;DHT22;526;51.392;12.448;2022-07-04T12:47:00;27.00;73.00
1075;DHT22;526;51.392;12.448;2022-07-04T12:49:26;27.00;72.30
1075;DHT22;526;51.392;12.448;2022-07-04T12:51:52;27.00;72.60
1075;DHT22;526;51.392;12.448;2022-07-04T12:54:28;27.00;72.60
1075;DHT22;526;51.392;12.448;2022-07-04T12:57:21;26.90;72.60
1075;DHT22;526;51.392;12.448;2022-07-04T12:59:46;26.70;72.60
1075;DHT22;526;51.392;12.448;2022-07-04T13:02:13;26.60;74.30
1075;DHT22;526;51.392;12.448;2022-07-04T13:04:40;26.80;72.70
1075;DHT22;526;51.392;12.448;2022-07-04T13:07:17;26.90;72.30
1075;DHT22;526;51.392;12.448;2022-07-04T13:09:44;27.20;71.80
1075;DHT22;526;51.392;12.448;2022-07-04T13:12:11;27.30;72.30
1075;DHT22;526;51.392;12.448;2022-07-04T13:14:54;27.30;71.90
1075;DHT22;526;51.392;12.448;2022-07-04T13:17:21;27.20;72.80
1075;DHT22;526;51.392;12.448;2022-07-04T13:19:47;27.30;72.70
1075;DHT22;526;51.392;12.448;2022-07-04T13:22:13;27.30;71.50
1075;DHT22;526;51.392;12.448;2022-07-04T13:24:39;27.40;71.90
1075;DHT22;526;51.392;12.448;2022-07-04T13:27:04;27.30;71.90
1075;DHT22;526;51.392;12.448;2022-07-04T13:29:30;27.30;72.40
1075;DHT22;526;51.392;12.448;2022-07-04T13:31:55;27.30;71.90
1075;DHT22;526;51.392;12.448;2022-07-04T13:34:21;27.40;72.80
1075;DHT22;526;51.392;12.448;2022-07-04T13:36:47;27.60;71.80
1075;DHT22;526;51.392;12.448;2022-07-04T13:39:12;27.80;69.60
1075;DHT22;526;51.392;12.448;2022-07-04T13:41:38;27.90;69.20
1075;DHT22;526;51.392;12.448;2022-07-04T13:44:05;28.00;69.50
1075;DHT22;526;51.392;12.448;2022-07-04T13:46:32;28.10;70.10
1075;DHT22;526;51.392;12.448;2022-07-04T13:49:06;28.20;70.90
1075;DHT22;526;51.392;12.448;2022-07-04T13:51:32;28.40;69.80
1075;DHT22;526;51.392;12.448;2022-07-04T13:53:58;28.50;70.60
1075;DHT22;526;51.392;12.448;2022-07-04T13:56:24;28.70;71.20
1075;DHT22;526;51.392;12.448;2022-07-04T13:58:49;28.80;67.90
1075;DHT22;526;51.392;12.448;2022-07-04T14:01:15;28.80;67.00
1075;DHT22;526;51.392;12.448;2022-07-04T14:03:43;28.70;67.80
1075;DHT22;526;51.392;12.448;2022-07-04T14:06:09;28.70;67.40
1075;DHT22;526;51.392;12.448;2022-07-04T14:08:35;28.80;67.60
1075;DHT22;526;51.392;12.448;2022-07-04T14:11:01;28.90;67.60
1075;DHT22;526;51.392;12.448;2022-07-04T14:13:28;29.00;67.20
1075;DHT22;526;51.392;12.448;2022-07-04T14:15:54;29.00;67.00
1075;DHT22;526;51.392;12.448;2022-07-04T14:18:20;29.00;67.50
1075;DHT22;526;51.392;12.448;2022-07-04T14:20:45;29.10;66.70
1075;DHT22;526;51.392;12.448;2022-07-04T14:23:12;29.20;67.90
1075;DHT22;526;51.392;12.448;2022-07-04T14:25:38;29.40;68.70
1075;DHT22;526;51.392;12.448;2022-07-04T14:28:04;29.60;69.80
1075;DHT22;526;51.392;12.448;2022-07-04T14:30:29;29.60;68.40
1075;DHT22;526;51.392;12.448;2022-07-04T14:32:55;29.70;67.50
1075;DHT22;526;51.392;12.448;2022-07-04T14:35:21;29.70;68.20
1075;DHT22;526;51.392;12.448;2022-07-04T14:37:46;29.70;67.30
1075;DHT22;526;51.392;12.448;2022-07-04T14:40:14;29.60;66.80
1075;DHT22;526;51.392;12.448;2022-07-04T14:42:40;29.60;68.00
1075;DHT22;526;51.392;12.448;2022-07-04T14:45:06;29.70;67.70
1075;DHT22;526;51.392;12.448;2022-07-04T14:47:32;29.70;66.90
1075;DHT22;526;51.392;12.448;2022-07-04T14:50:00;29.80;68.40
1075;DHT22;526;51.392;12.448;2022-07-04T14:52:26;29.80;66.80
1075;DHT22;526;51.392;12.448;2022-07-04T14:54:52;29.80;65.50
1075;DHT22;526;51.392;12.448;2022-07-04T14:57:18;29.80;65.60
1075;DHT22;526;51.392;12.448;2022-07-04T14:59:43;29.70;65.80
1075;DHT22;526;51.392;12.448;2022-07-04T15:02:09;29.70;65.50
1075;DHT22;526;51.392;12.448;2022-07-04T15:04:35;29.70;65.30
1075;DHT22;526;51.392;12.448;2022-07-04T15:07:01;29.80;65.80
1075;DHT22;526;51.392;12.448;2022-07-04T15:09:27;29.80;65.30
1075;DHT22;526;51.392;12.448;2022-07-04T15:11:53;29.80;65.40
1075;DHT22;526;51.392;12.448;2022-07-04T15:14:18;29.90;65.90
1075;DHT22;526;51.392;12.448;2022-07-04T15:16:44;29.90;64.80
1075;DHT22;526;51.392;12.448;2022-07-04T15:19:10;29.80;64.30
1075;DHT22;526;51.392;12.448;2022-07-04T15:21:35;29.90;64.40
1075;DHT22;526;51.392;12.448;2022-07-04T15:24:20;29.90;64.80
1075;DHT22;526;51.392;12.448;2022-07-04T15:26:47;30.00;65.40
1075;DHT22;526;51.392;12.448;2022-07-04T15:29:15;30.10;64.10
1075;DHT22;526;51.392;12.448;2022-07-04T15:31:42;30.10;64.60
1075;DHT22;526;51.392;12.448;2022-07-04T15:34:09;30.00;63.30
1075;DHT22;526;51.392;12.448;2022-07-04T15:36:35;30.00;64.10
1075;DHT22;526;51.392;12.448;2022-07-04T15:39:12;30.00;64.20
1075;DHT22;526;51.392;12.448;2022-07-04T15:41:39;30.00;64.20
1075;DHT22;526;51.392;12.448;2022-07-04T15:44:05;30.10;63.80
1075;DHT22;526;51.392;12.448;2022-07-04T15:46:31;30.10;63.70
1075;DHT22;526;51.392;12.448;2022-07-04T15:48:57;30.20;62.30
1075;DHT22;526;51.392;12.448;2022-07-04T15:51:23;30.10;63.20
1075;DHT22;526;51.392;12.448;2022-07-04T15:53:49;30.20;63.10
1075;DHT22;526;51.392;12.448;2022-07-04T15:56:14;30.20;62.70
1075;DHT22;526;51.392;12.448;2022-07-04T15:58:40;30.20;62.70
1075;DHT22;526;51.392;12.448;2022-07-04T16:01:05;30.30;63.40
1075;DHT22;526;51.392;12.448;2022-07-04T16:03:31;30.50;63.30
1075;DHT22;526;51.392;12.448;2022-07-04T16:05:57;30.50;62.10
1075;DHT22;526;51.392;12.448;2022-07-04T16:08:23;30.40;61.50
1075;DHT22;526;51.392;12.448;2022-07-04T16:10:48;30.30;62.00
1075;DHT22;526;51.392;12.448;2022-07-04T16:13:14;30.30;62.10
1075;DHT22;526;51.392;12.448;2022-07-04T16:15:40;30.30;62.20
1075;DHT22;526;51.392;12.448;2022-07-04T16:18:05;30.30;62.20
1075;DHT22;526;51.392;12.448;2022-07-04T16:20:31;30.30;61.80
1075;DHT22;526;51.392;12.448;2022-07-04T16:22:56;30.20;61.50